sensor_id;sensor_type;location;lat;lon;timestamp;P1;durP1;ratioP1;P2;durP2;ratioP2
2674;SDS011;1347;42.122;24.746;2022-09-23T00:02:13;5.60;;;5.10;;
2674;SDS011;1347;42.122;24.746;2022-09-23T00:04:40;5.67;;;5.07;;
2674;SDS011;1347;42.122;24.746;2022-09-23T00:07:07;6.80;;;4.20;;
2674;SDS011;1347;42.122;24.746;2022-09-23T00:09:34;6.67;;;5.40;;
2674;SDS011;1347;42.122;24.746;2022-09-23T00:12:01;5.07;;;4.57;;
2674;SDS011;1347;42.122;24.746;2022-09-23T00:14:28;5.40;;;4.63;;
2674;SDS011;1347;42.122;24.746;2022-09-23T00:16:56;6.17;;;5.13;;
2674;SDS011;1347;42.122;24.746;2022-09-23T00:19:23;5.23;;;4.73;;
2674;SDS011;1347;42.122;24.746;2022-09-23T00:21:50;4.87;;;4.47;;
2674;SDS011;1347;42.122;24.746;2022-09-23T00:24:17;5.70;;;5.20;;
2674;SDS011;1347;42.122;24.746;2022-09-23T00:26:44;5.80;;;5.20;;
2674;SDS011;1347;42.122;24.746;2022-09-23T00:29:10;6.73;;;5.03;;
2674;SDS011;1347;42.122;24.746;2022-09-23T00:31:37;5.37;;;4.87;;
2674;SDS011;1347;42.122;24.746;2022-09-23T00:34:06;5.27;;;4.87;;
2674;SDS011;1347;42.122;24.746;2022-09-23T00:36:36;5.70;;;5.20;;
2674;SDS011;1347;42.122;24.746;2022-09-23T00:39:03;7.40;;;5.50;;
2674;SDS011;1347;42.122;24.746;2022-09-23T00:41:29;5.37;;;4.87;;
2674;SDS011;1347;42.122;24.746;2022-09-23T00:43:58;5.60;;;4.70;;
2674;SDS011;1347;42.122;24.746;2022-09-23T00:46:27;5.93;;;4.77;;
2674;SDS011;1347;42.122;24.746;2022-09-23T00:49:00;5.63;;;5.13;;
2674;SDS011;1347;42.122;24.746;2022-09-23T00:51:32;6.17;;;5.57;;
2674;SDS011;1347;42.122;24.746;2022-09-23T00:54:03;5.37;;;4.87;;
2674;SDS011;1347;42.122;24.746;2022-09-23T00:56:31;5.03;;;4.60;;
2674;SDS011;1347;42.122;24.746;2022-09-23T00:59:00;6.60;;;6.00;;
2674;SDS011;1347;42.122;24.746;2022-09-23T01:01:27;6.53;;;5.93;;
2674;SDS011;1347;42.122;24.746;2022-09-23T01:03:54;5.30;;;4.50;;
2674;SDS011;1347;42.122;24.746;2022-09-23T01:06:22;6.20;;;5.07;;
2674;SDS011;1347;42.122;24.746;2022-09-23T01:08:51;4.90;;;4.47;;
2674;SDS011;1347;42.122;24.746;2022-09-23T01:11:25;4.83;;;4.43;;
2674;SDS011;1347;42.122;24.746;2022-09-23T01:14:01;5.00;;;4.50;;
2674;SDS011;1347;42.122;24.746;2022-09-23T01:16:37;5.43;;;4.93;;
2674;SDS011;1347;42.122;24.746;2022-09-23T01:19:10;4.67;;;4.27;;
2674;SDS011;1347;42.122;24.746;2022-09-23T01:21:56;6.03;;;5.40;;
2674;SDS011;1347;42.122;24.746;2022-09-23T01:24:46;5.13;;;4.70;;
2674;SDS011;1347;42.122;24.746;2022-09-23T01:33:09;6.13;;;4.27;;
2674;SDS011;1347;42.122;24.746;2022-09-23T01:35:45;5.40;;;4.73;;
2674;SDS011;1347;42.122;24.746;2022-09-23T01:38:22;4.00;;;3.60;;
2674;SDS011;1347;42.122;24.746;2022-09-23T01:40:58;6.00;;;5.00;;
2674;SDS011;1347;42.122;24.746;2022-09-23T01:43:32;4.67;;;4.20;;
2674;SDS011;1347;42.122;24.746;2022-09-23T01:46:08;4.50;;;4.10;;
2674;SDS011;1347;42.122;24.746;2022-09-23T01:48:44;4.83;;;4.37;;
2674;SDS011;1347;42.122;24.746;2022-09-23T01:51:15;5.90;;;4.80;;
2674;SDS011;1347;42.122;24.746;2022-09-23T01:53:50;4.50;;;4.10;;
2674;SDS011;1347;42.122;24.746;2022-09-23T01:56:24;4.70;;;4.30;;
2674;SDS011;1347;42.122;24.746;2022-09-23T01:58:55;4.50;;;4.10;;
2674;SDS011;1347;42.122;24.746;2022-09-23T02:01:31;4.67;;;4.27;;
2674;SDS011;1347;42.122;24.746;2022-09-23T02:04:04;7.80;;;4.97;;
2674;SDS011;1347;42.122;24.746;2022-09-23T02:06:37;4.33;;;3.93;;
2674;SDS011;1347;42.122;24.746;2022-09-23T02:09:09;6.43;;;4.60;;
2674;SDS011;1347;42.122;24.746;2022-09-23T02:11:40;5.33;;;4.67;;
2674;SDS011;1347;42.122;24.746;2022-09-23T02:14:14;5.30;;;4.40;;
2674;SDS011;1347;42.122;24.746;2022-09-23T02:16:49;7.43;;;4.90;;
2674;SDS011;1347;42.122;24.746;2022-09-23T02:19:20;5.30;;;4.90;;
2674;SDS011;1347;42.122;24.746;2022-09-23T02:21:54;6.43;;;4.90;;
2674;SDS011;1347;42.122;24.746;2022-09-23T02:24:26;5.83;;;5.33;;
2674;SDS011;1347;42.122;24.746;2022-09-23T02:26:57;5.67;;;5.17;;
2674;SDS011;1347;42.122;24.746;2022-09-23T02:29:32;5.13;;;4.63;;
2674;SDS011;1347;42.122;24.746;2022-09-23T02:32:09;5.13;;;4.70;;
2674;SDS011;1347;42.122;24.746;2022-09-23T02:34:41;5.60;;;5.10;;
2674;SDS011;1347;42.122;24.746;2022-09-23T02:37:22;6.37;;;5.70;;
2674;SDS011;1347;42.122;24.746;2022-09-23T02:39:57;10.73;;;6.80;;
2674;SDS011;1347;42.122;24.746;2022-09-23T02:42:29;6.27;;;5.67;;
2674;SDS011;1347;42.122;24.746;2022-09-23T02:45:02;6.83;;;6.20;;
2674;SDS011;1347;42.122;24.746;2022-09-23T02:47:31;6.47;;;5.87;;
2674;SDS011;1347;42.122;24.746;2022-09-23T02:50:04;7.30;;;6.10;;
2674;SDS011;1347;42.122;24.746;2022-09-23T02:52:31;6.57;;;5.97;;
2674;SDS011;1347;42.122;24.746;2022-09-23T02:55:00;6.10;;;5.53;;
2674;SDS011;1347;42.122;24.746;2022-09-23T02:57:28;6.40;;;5.77;;
2674;SDS011;1347;42.122;24.746;2022-09-23T02:59:55;7.10;;;5.60;;
2674;SDS011;1347;42.122;24.746;2022-09-23T03:05:21;8.70;;;5.73;;
2674;SDS011;1347;42.122;24.746;2022-09-23T03:07:59;7.53;;;6.00;;
2674;SDS011;1347;42.122;24.746;2022-09-23T03:10:39;5.93;;;5.30;;
2674;SDS011;1347;42.122;24.746;2022-09-23T03:13:18;9.50;;;6.13;;
2674;SDS011;1347;42.122;24.746;2022-09-23T03:15:55;8.13;;;6.17;;
2674;SDS011;1347;42.122;24.746;2022-09-23T03:18:31;6.23;;;5.63;;
2674;SDS011;1347;42.122;24.746;2022-09-23T03:21:02;6.80;;;6.10;;
2674;SDS011;1347;42.122;24.746;2022-09-23T03:23:33;6.07;;;5.47;;
2674;SDS011;1347;42.122;24.746;2022-09-23T03:26:04;5.53;;;5.03;;
2674;SDS011;1347;42.122;24.746;2022-09-23T03:28:34;6.30;;;5.40;;
2674;SDS011;1347;42.122;24.746;2022-09-23T03:31:02;5.67;;;4.10;;
2674;SDS011;1347;42.122;24.746;2022-09-23T03:33:31;5.73;;;5.23;;
2674;SDS011;1347;42.122;24.746;2022-09-23T03:36:01;5.10;;;4.67;;
2674;SDS011;1347;42.122;24.746;2022-09-23T03:38:49;5.60;;;5.10;;
2674;SDS011;1347;42.122;24.746;2022-09-23T03:41:20;6.90;;;6.07;;
2674;SDS011;1347;42.122;24.746;2022-09-23T03:43:53;5.97;;;5.40;;
2674;SDS011;1347;42.122;24.746;2022-09-23T03:46:23;7.63;;;6.20;;
2674;SDS011;1347;42.122;24.746;2022-09-23T03:48:52;6.90;;;5.73;;
2674;SDS011;1347;42.122;24.746;2022-09-23T03:51:25;6.00;;;5.37;;
2674;SDS011;1347;42.122;24.746;2022-09-23T03:53:51;6.70;;;5.70;;
2674;SDS011;1347;42.122;24.746;2022-09-23T03:56:18;5.93;;;5.10;;
2674;SDS011;1347;42.122;24.746;2022-09-23T03:58:45;5.73;;;5.13;;
2674;SDS011;1347;42.122;24.746;2022-09-23T04:01:13;6.90;;;5.70;;
2674;SDS011;1347;42.122;24.746;2022-09-23T04:03:40;6.20;;;5.60;;
2674;SDS011;1347;42.122;24.746;2022-09-23T04:06:08;5.60;;;5.10;;
2674;SDS011;1347;42.122;24.746;2022-09-23T04:08:35;14.67;;;6.40;;
2674;SDS011;1347;42.122;24.746;2022-09-23T04:11:02;6.40;;;5.77;;
2674;SDS011;1347;42.122;24.746;2022-09-23T04:13:30;5.93;;;5.43;;
2674;SDS011;1347;42.122;24.746;2022-09-23T04:15:57;9.13;;;6.33;;
2674;SDS011;1347;42.122;24.746;2022-09-23T04:18:24;8.83;;;6.80;;
2674;SDS011;1347;42.122;24.746;2022-09-23T04:20:55;8.30;;;6.90;;
2674;SDS011;1347;42.122;24.746;2022-09-23T04:23:24;8.30;;;7.50;;
2674;SDS011;1347;42.122;24.746;2022-09-23T04:25:52;8.80;;;7.80;;
2674;SDS011;1347;42.122;24.746;2022-09-23T04:28:19;7.53;;;6.63;;
2674;SDS011;1347;42.122;24.746;2022-09-23T04:30:46;9.90;;;8.47;;
2674;SDS011;1347;42.122;24.746;2022-09-23T04:33:14;7.30;;;6.57;;
2674;SDS011;1347;42.122;24.746;2022-09-23T04:35:42;7.30;;;6.70;;
2674;SDS011;1347;42.122;24.746;2022-09-23T04:38:09;7.10;;;6.00;;
2674;SDS011;1347;42.122;24.746;2022-09-23T04:40:39;10.03;;;6.93;;
2674;SDS011;1347;42.122;24.746;2022-09-23T04:43:06;6.67;;;5.97;;
2674;SDS011;1347;42.122;24.746;2022-09-23T04:45:33;7.67;;;5.87;;
2674;SDS011;1347;42.122;24.746;2022-09-23T04:48:00;8.30;;;6.60;;
2674;SDS011;1347;42.122;24.746;2022-09-23T04:50:27;5.87;;;5.37;;
2674;SDS011;1347;42.122;24.746;2022-09-23T04:52:54;13.87;;;5.70;;
2674;SDS011;1347;42.122;24.746;2022-09-23T04:55:21;7.27;;;5.47;;
2674;SDS011;1347;42.122;24.746;2022-09-23T04:57:49;6.73;;;6.00;;
2674;SDS011;1347;42.122;24.746;2022-09-23T05:00:16;8.67;;;5.63;;
2674;SDS011;1347;42.122;24.746;2022-09-23T05:02:44;7.47;;;5.57;;
2674;SDS011;1347;42.122;24.746;2022-09-23T05:05:12;8.80;;;5.40;;
2674;SDS011;1347;42.122;24.746;2022-09-23T05:07:45;10.70;;;5.07;;
2674;SDS011;1347;42.122;24.746;2022-09-23T05:10:12;6.07;;;5.47;;
2674;SDS011;1347;42.122;24.746;2022-09-23T05:12:39;7.77;;;6.10;;
2674;SDS011;1347;42.122;24.746;2022-09-23T05:15:07;5.93;;;5.00;;
2674;SDS011;1347;42.122;24.746;2022-09-23T05:17:35;5.77;;;5.13;;
2674;SDS011;1347;42.122;24.746;2022-09-23T05:20:02;6.17;;;5.60;;
2674;SDS011;1347;42.122;24.746;2022-09-23T05:22:29;7.37;;;5.80;;
2674;SDS011;1347;42.122;24.746;2022-09-23T05:24:56;5.80;;;5.20;;
2674;SDS011;1347;42.122;24.746;2022-09-23T05:27:24;6.70;;;5.73;;
2674;SDS011;1347;42.122;24.746;2022-09-23T05:29:51;6.33;;;5.37;;
2674;SDS011;1347;42.122;24.746;2022-09-23T05:32:19;5.93;;;5.33;;
2674;SDS011;1347;42.122;24.746;2022-09-23T05:34:46;6.33;;;5.57;;
2674;SDS011;1347;42.122;24.746;2022-09-23T05:37:13;8.40;;;5.20;;
2674;SDS011;1347;42.122;24.746;2022-09-23T05:39:40;9.50;;;4.93;;
2674;SDS011;1347;42.122;24.746;2022-09-23T05:42:07;6.60;;;5.37;;
2674;SDS011;1347;42.122;24.746;2022-09-23T05:44:36;5.70;;;5.13;;
2674;SDS011;1347;42.122;24.746;2022-09-23T05:47:04;5.30;;;4.80;;
2674;SDS011;1347;42.122;24.746;2022-09-23T05:49:32;12.40;;;6.30;;
2674;SDS011;1347;42.122;24.746;2022-09-23T05:52:00;6.27;;;5.70;;
2674;SDS011;1347;42.122;24.746;2022-09-23T05:54:27;5.40;;;4.90;;
2674;SDS011;1347;42.122;24.746;2022-09-23T05:56:54;8.40;;;5.77;;
2674;SDS011;1347;42.122;24.746;2022-09-23T05:59:21;7.80;;;5.67;;
2674;SDS011;1347;42.122;24.746;2022-09-23T06:01:48;5.53;;;4.97;;
2674;SDS011;1347;42.122;24.746;2022-09-23T06:04:15;5.90;;;5.33;;
2674;SDS011;1347;42.122;24.746;2022-09-23T06:06:43;5.90;;;5.40;;
2674;SDS011;1347;42.122;24.746;2022-09-23T06:09:11;5.80;;;5.30;;
2674;SDS011;1347;42.122;24.746;2022-09-23T06:11:39;8.77;;;7.03;;
2674;SDS011;1347;42.122;24.746;2022-09-23T06:14:08;7.07;;;6.33;;
2674;SDS011;1347;42.122;24.746;2022-09-23T06:16:37;6.60;;;6.03;;
2674;SDS011;1347;42.122;24.746;2022-09-23T06:19:04;5.60;;;5.10;;
2674;SDS011;1347;42.122;24.746;2022-09-23T06:21:32;6.90;;;5.70;;
2674;SDS011;1347;42.122;24.746;2022-09-23T06:24:02;7.23;;;5.90;;
2674;SDS011;1347;42.122;24.746;2022-09-23T06:26:29;5.93;;;5.43;;
2674;SDS011;1347;42.122;24.746;2022-09-23T06:28:58;7.17;;;5.20;;
2674;SDS011;1347;42.122;24.746;2022-09-23T06:31:25;6.90;;;5.30;;
2674;SDS011;1347;42.122;24.746;2022-09-23T06:33:53;5.60;;;5.10;;
2674;SDS011;1347;42.122;24.746;2022-09-23T06:36:20;5.07;;;4.57;;
2674;SDS011;1347;42.122;24.746;2022-09-23T06:38:47;5.30;;;4.80;;
2674;SDS011;1347;42.122;24.746;2022-09-23T06:41:16;7.23;;;4.70;;
2674;SDS011;1347;42.122;24.746;2022-09-23T06:43:44;7.70;;;5.30;;
2674;SDS011;1347;42.122;24.746;2022-09-23T06:46:12;5.07;;;4.67;;
2674;SDS011;1347;42.122;24.746;2022-09-23T06:48:41;4.80;;;4.37;;
2674;SDS011;1347;42.122;24.746;2022-09-23T06:51:09;4.73;;;4.13;;
2674;SDS011;1347;42.122;24.746;2022-09-23T06:53:43;5.03;;;4.60;;
2674;SDS011;1347;42.122;24.746;2022-09-23T06:56:10;4.07;;;3.77;;
2674;SDS011;1347;42.122;24.746;2022-09-23T06:58:39;5.10;;;4.10;;
2674;SDS011;1347;42.122;24.746;2022-09-23T07:01:09;3.97;;;3.57;;
2674;SDS011;1347;42.122;24.746;2022-09-23T07:03:37;4.43;;;4.03;;
2674;SDS011;1347;42.122;24.746;2022-09-23T07:06:05;5.17;;;4.77;;
2674;SDS011;1347;42.122;24.746;2022-09-23T07:08:33;5.20;;;4.80;;
2674;SDS011;1347;42.122;24.746;2022-09-23T07:11:02;4.20;;;3.80;;
2674;SDS011;1347;42.122;24.746;2022-09-23T07:13:31;3.93;;;3.60;;
2674;SDS011;1347;42.122;24.746;2022-09-23T07:16:00;20.30;;;5.00;;
2674;SDS011;1347;42.122;24.746;2022-09-23T07:18:28;4.30;;;3.57;;
2674;SDS011;1347;42.122;24.746;2022-09-23T07:21:03;3.90;;;3.60;;
2674;SDS011;1347;42.122;24.746;2022-09-23T07:23:31;5.07;;;4.27;;
2674;SDS011;1347;42.122;24.746;2022-09-23T07:25:58;4.20;;;3.83;;
2674;SDS011;1347;42.122;24.746;2022-09-23T07:28:25;5.20;;;4.20;;
2674;SDS011;1347;42.122;24.746;2022-09-23T07:30:53;11.50;;;4.10;;
2674;SDS011;1347;42.122;24.746;2022-09-23T07:33:21;5.10;;;4.60;;
2674;SDS011;1347;42.122;24.746;2022-09-23T07:35:48;4.30;;;3.10;;
2674;SDS011;1347;42.122;24.746;2022-09-23T07:38:15;3.70;;;3.40;;
2674;SDS011;1347;42.122;24.746;2022-09-23T07:40:42;9.60;;;4.53;;
2674;SDS011;1347;42.122;24.746;2022-09-23T07:43:09;8.17;;;3.87;;
2674;SDS011;1347;42.122;24.746;2022-09-23T07:45:37;4.23;;;3.77;;
2674;SDS011;1347;42.122;24.746;2022-09-23T07:48:07;4.90;;;2.97;;
2674;SDS011;1347;42.122;24.746;2022-09-23T07:50:39;3.97;;;3.67;;
2674;SDS011;1347;42.122;24.746;2022-09-23T07:53:06;5.87;;;3.73;;
2674;SDS011;1347;42.122;24.746;2022-09-23T07:55:33;3.70;;;3.40;;
2674;SDS011;1347;42.122;24.746;2022-09-23T07:58:00;4.87;;;3.20;;
2674;SDS011;1347;42.122;24.746;2022-09-23T08:00:28;5.80;;;3.20;;
2674;SDS011;1347;42.122;24.746;2022-09-23T08:02:54;6.43;;;3.63;;
2674;SDS011;1347;42.122;24.746;2022-09-23T08:05:21;4.13;;;3.53;;
2674;SDS011;1347;42.122;24.746;2022-09-23T08:07:50;3.53;;;3.23;;
2674;SDS011;1347;42.122;24.746;2022-09-23T08:10:17;3.97;;;3.27;;
2674;SDS011;1347;42.122;24.746;2022-09-23T08:12:45;4.60;;;3.40;;
2674;SDS011;1347;42.122;24.746;2022-09-23T08:15:13;3.40;;;3.10;;
2674;SDS011;1347;42.122;24.746;2022-09-23T08:17:41;4.10;;;3.80;;
2674;SDS011;1347;42.122;24.746;2022-09-23T08:20:09;3.67;;;3.10;;
2674;SDS011;1347;42.122;24.746;2022-09-23T08:22:59;4.17;;;3.20;;
2674;SDS011;1347;42.122;24.746;2022-09-23T08:25:26;3.07;;;2.87;;
2674;SDS011;1347;42.122;24.746;2022-09-23T08:27:53;9.73;;;3.30;;
2674;SDS011;1347;42.122;24.746;2022-09-23T08:30:21;7.73;;;3.50;;
2674;SDS011;1347;42.122;24.746;2022-09-23T08:32:48;3.70;;;3.33;;
2674;SDS011;1347;42.122;24.746;2022-09-23T08:35:16;5.87;;;3.50;;
2674;SDS011;1347;42.122;24.746;2022-09-23T08:37:44;3.77;;;3.50;;
2674;SDS011;1347;42.122;24.746;2022-09-23T08:40:13;3.87;;;3.57;;
2674;SDS011;1347;42.122;24.746;2022-09-23T08:42:40;3.47;;;3.17;;
2674;SDS011;1347;42.122;24.746;2022-09-23T08:45:12;4.77;;;3.50;;
2674;SDS011;1347;42.122;24.746;2022-09-23T08:47:46;4.40;;;3.70;;
2674;SDS011;1347;42.122;24.746;2022-09-23T08:50:18;3.10;;;2.90;;
2674;SDS011;1347;42.122;24.746;2022-09-23T08:52:48;4.73;;;4.40;;
2674;SDS011;1347;42.122;24.746;2022-09-23T08:55:21;3.90;;;3.60;;
2674;SDS011;1347;42.122;24.746;2022-09-23T08:58:05;3.73;;;3.43;;
2674;SDS011;1347;42.122;24.746;2022-09-23T09:00:47;3.80;;;3.47;;
2674;SDS011;1347;42.122;24.746;2022-09-23T09:03:32;7.30;;;3.63;;
2674;SDS011;1347;42.122;24.746;2022-09-23T09:06:06;3.80;;;3.40;;
2674;SDS011;1347;42.122;24.746;2022-09-23T09:08:38;2.70;;;2.50;;
2674;SDS011;1347;42.122;24.746;2022-09-23T09:11:08;3.90;;;3.60;;
2674;SDS011;1347;42.122;24.746;2022-09-23T09:13:39;3.87;;;3.57;;
2674;SDS011;1347;42.122;24.746;2022-09-23T09:16:17;3.63;;;3.33;;
2674;SDS011;1347;42.122;24.746;2022-09-23T09:18:53;4.43;;;4.03;;
2674;SDS011;1347;42.122;24.746;2022-09-23T09:21:25;3.50;;;3.20;;
2674;SDS011;1347;42.122;24.746;2022-09-23T09:24:03;3.53;;;2.80;;
2674;SDS011;1347;42.122;24.746;2022-09-23T09:26:49;4.80;;;4.43;;
2674;SDS011;1347;42.122;24.746;2022-09-23T09:29:16;4.57;;;3.50;;
2674;SDS011;1347;42.122;24.746;2022-09-23T09:31:48;3.57;;;3.37;;
2674;SDS011;1347;42.122;24.746;2022-09-23T09:34:21;3.10;;;2.80;;
2674;SDS011;1347;42.122;24.746;2022-09-23T09:36:56;3.20;;;3.00;;
2674;SDS011;1347;42.122;24.746;2022-09-23T09:39:29;3.50;;;3.30;;
2674;SDS011;1347;42.122;24.746;2022-09-23T09:41:58;4.27;;;3.97;;
2674;SDS011;1347;42.122;24.746;2022-09-23T09:44:26;3.57;;;2.87;;
2674;SDS011;1347;42.122;24.746;2022-09-23T09:47:07;3.20;;;3.00;;
2674;SDS011;1347;42.122;24.746;2022-09-23T09:49:44;3.60;;;3.30;;
2674;SDS011;1347;42.122;24.746;2022-09-23T09:52:19;3.57;;;3.37;;
2674;SDS011;1347;42.122;24.746;2022-09-23T09:54:48;3.80;;;3.60;;
2674;SDS011;1347;42.122;24.746;2022-09-23T09:57:18;3.50;;;3.30;;
2674;SDS011;1347;42.122;24.746;2022-09-23T09:59:54;4.17;;;3.27;;
2674;SDS011;1347;42.122;24.746;2022-09-23T10:02:23;4.60;;;3.33;;
2674;SDS011;1347;42.122;24.746;2022-09-23T10:04:58;3.30;;;3.00;;
2674;SDS011;1347;42.122;24.746;2022-09-23T10:07:27;3.23;;;3.03;;
2674;SDS011;1347;42.122;24.746;2022-09-23T10:09:56;3.70;;;3.30;;
2674;SDS011;1347;42.122;24.746;2022-09-23T10:12:26;5.60;;;3.33;;
2674;SDS011;1347;42.122;24.746;2022-09-23T10:15:23;4.30;;;3.90;;
2674;SDS011;1347;42.122;24.746;2022-09-23T10:17:52;5.10;;;3.10;;
2674;SDS011;1347;42.122;24.746;2022-09-23T10:20:19;3.17;;;2.97;;
2674;SDS011;1347;42.122;24.746;2022-09-23T10:22:46;3.13;;;2.90;;
2674;SDS011;1347;42.122;24.746;2022-09-23T10:25:15;2.93;;;2.67;;
2674;SDS011;1347;42.122;24.746;2022-09-23T10:27:47;3.40;;;2.07;;
2674;SDS011;1347;42.122;24.746;2022-09-23T10:30:19;3.07;;;2.60;;
2674;SDS011;1347;42.122;24.746;2022-09-23T10:32:47;12.10;;;5.20;;
2674;SDS011;1347;42.122;24.746;2022-09-23T10:35:16;2.00;;;1.90;;
2674;SDS011;1347;42.122;24.746;2022-09-23T10:37:46;2.67;;;2.10;;
2674;SDS011;1347;42.122;24.746;2022-09-23T10:40:17;4.50;;;1.97;;
2674;SDS011;1347;42.122;24.746;2022-09-23T10:46:24;4.40;;;2.30;;
2674;SDS011;1347;42.122;24.746;2022-09-23T10:49:14;7.57;;;2.00;;
2674;SDS011;1347;42.122;24.746;2022-09-23T10:52:11;2.00;;;1.73;;
2674;SDS011;1347;42.122;24.746;2022-09-23T10:54:54;3.37;;;2.20;;
2674;SDS011;1347;42.122;24.746;2022-09-23T10:57:26;6.80;;;2.10;;
2674;SDS011;1347;42.122;24.746;2022-09-23T11:00:18;1.80;;;1.70;;
2674;SDS011;1347;42.122;24.746;2022-09-23T11:02:53;2.83;;;1.70;;
2674;SDS011;1347;42.122;24.746;2022-09-23T11:05:37;2.40;;;1.50;;
2674;SDS011;1347;42.122;24.746;2022-09-23T11:08:19;1.60;;;1.50;;
2674;SDS011;1347;42.122;24.746;2022-09-23T11:11:01;1.87;;;1.50;;
2674;SDS011;1347;42.122;24.746;2022-09-23T11:13:41;5.00;;;2.10;;
2674;SDS011;1347;42.122;24.746;2022-09-23T11:16:20;1.60;;;1.50;;
2674;SDS011;1347;42.122;24.746;2022-09-23T11:19:00;1.73;;;1.57;;
2674;SDS011;1347;42.122;24.746;2022-09-23T11:21:51;2.10;;;1.80;;
2674;SDS011;1347;42.122;24.746;2022-09-23T11:27:15;3.13;;;1.70;;
2674;SDS011;1347;42.122;24.746;2022-09-23T11:30:04;2.10;;;1.63;;
2674;SDS011;1347;42.122;24.746;2022-09-23T11:35:43;3.97;;;2.00;;
2674;SDS011;1347;42.122;24.746;2022-09-23T11:38:14;2.23;;;2.03;;
2674;SDS011;1347;42.122;24.746;2022-09-23T11:40:50;3.43;;;1.90;;
2674;SDS011;1347;42.122;24.746;2022-09-23T11:43:20;4.30;;;1.40;;
2674;SDS011;1347;42.122;24.746;2022-09-23T11:45:50;2.17;;;1.60;;
2674;SDS011;1347;42.122;24.746;2022-09-23T11:48:26;5.20;;;2.00;;
2674;SDS011;1347;42.122;24.746;2022-09-23T11:50:58;1.57;;;1.30;;
2674;SDS011;1347;42.122;24.746;2022-09-23T11:53:30;1.80;;;1.60;;
2674;SDS011;1347;42.122;24.746;2022-09-23T11:56:06;1.40;;;1.23;;
2674;SDS011;1347;42.122;24.746;2022-09-23T11:58:36;1.83;;;1.30;;
2674;SDS011;1347;42.122;24.746;2022-09-23T12:01:08;2.53;;;1.70;;
2674;SDS011;1347;42.122;24.746;2022-09-23T12:03:43;1.40;;;1.20;;
2674;SDS011;1347;42.122;24.746;2022-09-23T12:06:15;2.50;;;1.20;;
2674;SDS011;1347;42.122;24.746;2022-09-23T12:08:45;1.70;;;1.60;;
2674;SDS011;1347;42.122;24.746;2022-09-23T12:11:20;1.87;;;1.40;;
2674;SDS011;1347;42.122;24.746;2022-09-23T12:13:58;1.87;;;1.30;;
2674;SDS011;1347;42.122;24.746;2022-09-23T12:19:44;2.83;;;1.67;;
2674;SDS011;1347;42.122;24.746;2022-09-23T12:22:24;1.70;;;1.60;;
2674;SDS011;1347;42.122;24.746;2022-09-23T12:25:07;1.70;;;1.17;;
2674;SDS011;1347;42.122;24.746;2022-09-23T12:27:48;3.50;;;2.10;;
2674;SDS011;1347;42.122;24.746;2022-09-23T12:30:20;2.00;;;1.70;;
2674;SDS011;1347;42.122;24.746;2022-09-23T12:32:50;2.27;;;2.07;;
2674;SDS011;1347;42.122;24.746;2022-09-23T12:35:22;5.10;;;2.03;;
2674;SDS011;1347;42.122;24.746;2022-09-23T12:37:52;2.13;;;1.40;;
2674;SDS011;1347;42.122;24.746;2022-09-23T12:40:20;1.40;;;1.27;;
2674;SDS011;1347;42.122;24.746;2022-09-23T12:42:52;1.40;;;1.30;;
2674;SDS011;1347;42.122;24.746;2022-09-23T12:51:13;1.90;;;1.70;;
2674;SDS011;1347;42.122;24.746;2022-09-23T12:53:49;2.43;;;1.70;;
2674;SDS011;1347;42.122;24.746;2022-09-23T12:56:22;2.77;;;1.80;;
2674;SDS011;1347;42.122;24.746;2022-09-23T12:58:57;5.27;;;1.57;;
2674;SDS011;1347;42.122;24.746;2022-09-23T13:01:26;2.33;;;1.80;;
2674;SDS011;1347;42.122;24.746;2022-09-23T13:03:58;2.27;;;1.80;;
2674;SDS011;1347;42.122;24.746;2022-09-23T13:06:45;1.60;;;1.50;;
2674;SDS011;1347;42.122;24.746;2022-09-23T13:09:19;1.90;;;1.80;;
2674;SDS011;1347;42.122;24.746;2022-09-23T13:11:49;1.80;;;1.70;;
2674;SDS011;1347;42.122;24.746;2022-09-23T13:14:18;1.90;;;1.50;;
2674;SDS011;1347;42.122;24.746;2022-09-23T13:16:48;3.60;;;1.70;;
2674;SDS011;1347;42.122;24.746;2022-09-23T13:22:13;1.73;;;1.60;;
2674;SDS011;1347;42.122;24.746;2022-09-23T13:25:07;2.50;;;1.60;;
2674;SDS011;1347;42.122;24.746;2022-09-23T13:27:45;1.70;;;1.53;;
2674;SDS011;1347;42.122;24.746;2022-09-23T13:30:17;2.17;;;1.17;;
2674;SDS011;1347;42.122;24.746;2022-09-23T13:32:47;1.70;;;1.30;;
2674;SDS011;1347;42.122;24.746;2022-09-23T13:35:18;1.40;;;1.17;;
2674;SDS011;1347;42.122;24.746;2022-09-23T13:37:53;2.50;;;1.23;;
2674;SDS011;1347;42.122;24.746;2022-09-23T13:40:21;1.73;;;1.60;;
2674;SDS011;1347;42.122;24.746;2022-09-23T13:42:51;3.43;;;1.60;;
2674;SDS011;1347;42.122;24.746;2022-09-23T13:45:22;2.37;;;1.40;;
2674;SDS011;1347;42.122;24.746;2022-09-23T13:47:50;2.40;;;1.63;;
2674;SDS011;1347;42.122;24.746;2022-09-23T13:50:21;3.30;;;1.50;;
2674;SDS011;1347;42.122;24.746;2022-09-23T13:52:58;1.50;;;1.40;;
2674;SDS011;1347;42.122;24.746;2022-09-23T13:55:30;1.90;;;1.80;;
2674;SDS011;1347;42.122;24.746;2022-09-23T13:58:02;2.37;;;1.43;;
2674;SDS011;1347;42.122;24.746;2022-09-23T14:00:49;3.37;;;1.90;;
2674;SDS011;1347;42.122;24.746;2022-09-23T14:03:26;1.67;;;1.43;;
2674;SDS011;1347;42.122;24.746;2022-09-23T14:05:58;2.73;;;2.10;;
2674;SDS011;1347;42.122;24.746;2022-09-23T14:08:45;2.03;;;1.83;;
2674;SDS011;1347;42.122;24.746;2022-09-23T14:11:21;4.40;;;2.83;;
2674;SDS011;1347;42.122;24.746;2022-09-23T14:42:17;3.00;;;2.70;;
2674;SDS011;1347;42.122;24.746;2022-09-23T14:44:52;2.90;;;2.67;;
2674;SDS011;1347;42.122;24.746;2022-09-23T14:47:42;3.40;;;3.03;;
2674;SDS011;1347;42.122;24.746;2022-09-23T14:53:52;5.53;;;2.70;;
2674;SDS011;1347;42.122;24.746;2022-09-23T14:57:04;4.53;;;3.50;;
2674;SDS011;1347;42.122;24.746;2022-09-23T15:14:22;2.60;;;2.40;;
2674;SDS011;1347;42.122;24.746;2022-09-23T15:17:26;2.47;;;2.23;;
2674;SDS011;1347;42.122;24.746;2022-09-23T15:20:16;3.10;;;2.70;;
2674;SDS011;1347;42.122;24.746;2022-09-23T15:23:03;8.13;;;2.77;;
2674;SDS011;1347;42.122;24.746;2022-09-23T15:25:38;2.70;;;2.33;;
2674;SDS011;1347;42.122;24.746;2022-09-23T15:28:23;2.97;;;2.67;;
2674;SDS011;1347;42.122;24.746;2022-09-23T15:30:55;2.63;;;2.30;;
2674;SDS011;1347;42.122;24.746;2022-09-23T15:33:40;2.93;;;2.63;;
2674;SDS011;1347;42.122;24.746;2022-09-23T15:36:15;3.20;;;2.27;;
2674;SDS011;1347;42.122;24.746;2022-09-23T15:38:52;3.10;;;2.63;;
2674;SDS011;1347;42.122;24.746;2022-09-23T15:45:25;3.30;;;2.87;;
2674;SDS011;1347;42.122;24.746;2022-09-23T15:48:10;3.37;;;2.50;;
2674;SDS011;1347;42.122;24.746;2022-09-23T15:50:54;2.30;;;2.10;;
2674;SDS011;1347;42.122;24.746;2022-09-23T15:53:33;5.07;;;3.23;;
2674;SDS011;1347;42.122;24.746;2022-09-23T15:56:02;3.73;;;2.77;;
2674;SDS011;1347;42.122;24.746;2022-09-23T15:58:42;8.50;;;3.07;;
2674;SDS011;1347;42.122;24.746;2022-09-23T16:01:11;6.63;;;3.10;;
2674;SDS011;1347;42.122;24.746;2022-09-23T16:03:52;4.03;;;2.30;;
2674;SDS011;1347;42.122;24.746;2022-09-23T16:06:30;9.73;;;3.20;;
2674;SDS011;1347;42.122;24.746;2022-09-23T16:09:04;3.37;;;2.40;;
2674;SDS011;1347;42.122;24.746;2022-09-23T16:11:39;3.17;;;2.87;;
2674;SDS011;1347;42.122;24.746;2022-09-23T16:14:16;10.60;;;3.07;;
2674;SDS011;1347;42.122;24.746;2022-09-23T16:16:45;3.83;;;2.23;;
2674;SDS011;1347;42.122;24.746;2022-09-23T16:19:12;2.37;;;2.10;;
2674;SDS011;1347;42.122;24.746;2022-09-23T16:21:39;6.07;;;2.70;;
2674;SDS011;1347;42.122;24.746;2022-09-23T16:24:13;4.63;;;3.00;;
2674;SDS011;1347;42.122;24.746;2022-09-23T16:26:42;5.93;;;3.23;;
2674;SDS011;1347;42.122;24.746;2022-09-23T16:29:10;8.70;;;4.40;;
2674;SDS011;1347;42.122;24.746;2022-09-23T16:31:40;8.63;;;5.20;;
2674;SDS011;1347;42.122;24.746;2022-09-23T16:34:20;11.73;;;5.50;;
2674;SDS011;1347;42.122;24.746;2022-09-23T16:36:50;8.27;;;4.30;;
2674;SDS011;1347;42.122;24.746;2022-09-23T16:39:28;7.57;;;3.70;;
2674;SDS011;1347;42.122;24.746;2022-09-23T16:41:57;4.33;;;3.93;;
2674;SDS011;1347;42.122;24.746;2022-09-23T16:44:24;7.13;;;5.77;;
2674;SDS011;1347;42.122;24.746;2022-09-23T16:46:54;14.47;;;11.70;;
2674;SDS011;1347;42.122;24.746;2022-09-23T16:49:23;8.47;;;6.70;;
2674;SDS011;1347;42.122;24.746;2022-09-23T16:51:51;7.30;;;4.20;;